Accident, Maryland
Current Conditions -  °F | °C
As of 7:00 PM on Saturday 22 Nov 2014 (Local Time) from K2G4 Reporting Station
Overcast Overcast  
Wind Chill: 39°   Ceiling: 9000
Heat Index: 45°   Visibility: 10mi
Dew Point: 27°   Wind: 10mph
Humidity: 49%   Direction: 200°SSW
Pressure: 30.17"   Gusts: NA
Location:  39.63°N, 79.32°W
Report Text: K2G4 230000Z AUTO 20009KT 10SM SCT055 OVC090 07/M03 A3017 RMK AO1
Loading
Personal Weather Stations






























Interactive Weather Map New forecast layout! Learn more

10-Day Weather Forecast

Advertisements
Track Severe Weather on mobile